Andyville, Minnesota
Current Conditions -  °F | °C
As of 8:36 AM on Monday 22 Dec 2014 (Local Time) from KAUM Reporting Station
Moderate Rain Moderate Rain  
Wind Chill: 25°   Ceiling: 300
Heat Index: 34°   Visibility: 1.7mi
Dew Point: 34°   Wind: 13mph
Humidity: 100%   Direction: 140°SE
Pressure: 29.66"   Gusts: NA
Location:  43.7173°N, 92.9889°W
Report Text: KAUM 221436Z AUTO 14011KT 1 3/4SM RA OVC003 01/01 A2966 RMK AO2
Loading
Personal Weather Stations






























Interactive Weather Map New forecast layout! Learn more

10-Day Weather Forecast

Advertisements
Track Severe Weather on mobile